createdAt,value
2017-12-17T00:00:32.889Z,3.10
2017-12-17T00:03:01.512Z,3.10
2017-12-17T00:05:29.228Z,3.10
2017-12-17T00:07:57.262Z,3.10
2017-12-17T00:10:25.106Z,3.10
2017-12-17T00:12:52.874Z,3.20
2017-12-17T00:15:20.570Z,3.10
2017-12-17T00:17:48.339Z,3.10
2017-12-17T00:20:16.066Z,3.00
2017-12-17T00:22:43.810Z,3.00
2017-12-17T00:25:11.536Z,3.10
2017-12-17T00:27:39.263Z,3.10
2017-12-17T00:30:06.935Z,3.10
2017-12-17T00:32:35.045Z,3.40
2017-12-17T00:35:04.132Z,3.30
2017-12-17T00:37:32.676Z,3.20
2017-12-17T00:40:00.447Z,3.20
2017-12-17T00:42:28.902Z,3.10
2017-12-17T00:44:56.647Z,3.10
2017-12-17T00:47:24.334Z,3.20
2017-12-17T00:49:52.039Z,3.30
2017-12-17T00:52:20.524Z,3.60
2017-12-17T00:54:48.970Z,3.70
2017-12-17T00:57:16.655Z,3.70
2017-12-17T00:59:44.411Z,3.70
2017-12-17T01:02:12.839Z,3.60
2017-12-17T01:04:40.538Z,3.60
2017-12-17T01:07:08.987Z,3.60
2017-12-17T01:09:36.708Z,3.60
2017-12-17T01:12:04.383Z,3.70
2017-12-17T01:14:32.120Z,3.70
2017-12-17T01:16:59.839Z,3.60
2017-12-17T01:19:27.599Z,3.60
2017-12-17T01:21:55.287Z,3.60
2017-12-17T01:24:23.759Z,3.70
2017-12-17T01:26:52.204Z,3.70
2017-12-17T01:29:19.919Z,3.70
2017-12-17T01:31:47.623Z,3.70
2017-12-17T01:34:15.343Z,3.60
2017-12-17T01:36:43.012Z,3.50
2017-12-17T01:39:10.683Z,3.50
2017-12-17T01:41:38.431Z,3.50
2017-12-17T01:44:06.140Z,3.50
2017-12-17T01:46:33.917Z,3.30
2017-12-17T01:49:02.400Z,3.60
2017-12-17T01:51:30.948Z,3.50
2017-12-17T01:53:58.699Z,3.50
2017-12-17T01:56:26.467Z,3.50
2017-12-17T01:58:54.203Z,3.50
2017-12-17T02:01:21.978Z,3.30
2017-12-17T02:03:49.674Z,3.30
2017-12-17T02:06:17.443Z,3.20
2017-12-17T02:08:45.866Z,3.50
2017-12-17T02:11:13.570Z,3.40
2017-12-17T02:13:41.307Z,3.60
2017-12-17T02:16:09.062Z,3.60
2017-12-17T02:18:36.767Z,3.60
2017-12-17T02:21:05.294Z,3.60
2017-12-17T02:23:32.994Z,3.60
2017-12-17T02:26:00.755Z,3.60
2017-12-17T02:28:28.462Z,3.60
2017-12-17T02:30:56.224Z,3.50
2017-12-17T02:33:23.930Z,3.40
2017-12-17T02:35:51.695Z,3.20
2017-12-17T02:38:19.398Z,3.10
2017-12-17T02:40:47.091Z,3.10
2017-12-17T02:43:14.840Z,3.20
2017-12-17T02:45:42.547Z,3.20
2017-12-17T02:48:11.063Z,3.30
2017-12-17T02:50:38.779Z,3.30
2017-12-17T02:53:06.529Z,3.30
2017-12-17T02:55:34.235Z,3.40
2017-12-17T02:58:02.071Z,3.30
2017-12-17T03:00:30.659Z,3.40
2017-12-17T03:02:59.219Z,3.60
2017-12-17T03:05:26.932Z,3.60
2017-12-17T03:07:54.688Z,3.40
2017-12-17T03:10:22.427Z,3.50
2017-12-17T03:12:50.942Z,3.60
2017-12-17T03:15:18.662Z,3.60
2017-12-17T03:17:47.173Z,3.70
2017-12-17T03:20:14.895Z,3.70
2017-12-17T03:22:43.418Z,3.60
2017-12-17T03:25:11.127Z,3.60
2017-12-17T03:27:38.896Z,3.60
2017-12-17T03:30:06.656Z,3.50
2017-12-17T03:32:35.175Z,3.40
2017-12-17T03:35:02.930Z,3.30
2017-12-17T03:37:30.630Z,3.30
2017-12-17T03:39:58.386Z,3.40
2017-12-17T03:42:26.104Z,3.40
2017-12-17T03:44:53.867Z,3.30
2017-12-17T03:47:21.580Z,3.40
2017-12-17T03:49:49.326Z,3.20
2017-12-17T03:52:17.029Z,3.40
2017-12-17T03:54:45.548Z,3.40
2017-12-17T03:57:13.259Z,3.40
2017-12-17T03:59:41.784Z,3.40
2017-12-17T04:02:09.503Z,3.30
2017-12-17T04:04:38.022Z,3.20
2017-12-17T04:07:05.779Z,3.10
2017-12-17T04:09:33.530Z,3.10
2017-12-17T04:12:01.236Z,3.10
2017-12-17T04:14:28.994Z,3.10
2017-12-17T04:16:56.698Z,3.10
2017-12-17T04:19:25.207Z,3.30
2017-12-17T04:21:52.915Z,3.30
2017-12-17T04:24:20.617Z,3.40
2017-12-17T04:26:48.363Z,3.50
2017-12-17T04:29:16.828Z,3.40
2017-12-17T04:31:45.351Z,3.40
2017-12-17T04:34:13.062Z,3.40
2017-12-17T04:36:40.815Z,3.50
2017-12-17T04:39:08.526Z,3.50
2017-12-17T04:41:36.280Z,3.50
2017-12-17T04:44:03.996Z,3.50
2017-12-17T04:46:31.743Z,3.40
2017-12-17T04:48:59.454Z,3.50
2017-12-17T04:51:27.201Z,3.50
2017-12-17T04:53:55.670Z,3.50
2017-12-17T04:56:24.187Z,3.40
2017-12-17T04:58:51.878Z,3.40
2017-12-17T05:01:19.631Z,3.40
2017-12-17T05:03:47.339Z,3.40
2017-12-17T05:06:15.851Z,3.40
2017-12-17T05:08:43.555Z,3.40
2017-12-17T05:11:11.310Z,3.50
2017-12-17T05:13:39.027Z,3.40
2017-12-17T05:16:06.759Z,3.40
2017-12-17T05:18:35.222Z,3.30
2017-12-17T05:21:02.991Z,3.30
2017-12-17T05:23:31.463Z,3.30
2017-12-17T05:25:59.175Z,3.30
2017-12-17T05:28:26.943Z,3.20
2017-12-17T05:30:54.659Z,3.20
2017-12-17T05:33:23.174Z,3.00
2017-12-17T05:35:50.903Z,3.00
2017-12-17T05:38:19.449Z,3.10
2017-12-17T05:40:47.174Z,3.10
2017-12-17T05:43:14.940Z,3.20
2017-12-17T05:45:42.640Z,3.30
2017-12-17T05:48:10.419Z,3.40
2017-12-17T05:50:38.907Z,3.30
2017-12-17T05:53:07.452Z,3.30
2017-12-17T05:55:35.174Z,3.30
2017-12-17T05:58:02.937Z,3.30
2017-12-17T06:00:30.695Z,3.30
2017-12-17T06:02:58.436Z,3.20
2017-12-17T06:05:26.916Z,3.10
2017-12-17T06:07:54.696Z,3.00
2017-12-17T06:10:22.422Z,2.90
2017-12-17T06:12:50.187Z,2.90
2017-12-17T06:15:18.685Z,2.90
2017-12-17T06:17:46.450Z,2.80
2017-12-17T06:20:14.211Z,3.00
2017-12-17T06:22:41.962Z,3.10
2017-12-17T06:25:10.446Z,2.90
2017-12-17T06:27:38.158Z,2.90
2017-12-17T06:30:05.939Z,3.00
2017-12-17T06:32:34.439Z,2.80
2017-12-17T06:35:02.953Z,2.90
2017-12-17T06:37:30.679Z,2.80
2017-12-17T06:39:58.435Z,2.80
2017-12-17T06:42:26.961Z,2.80
2017-12-17T06:44:54.729Z,2.70
2017-12-17T06:47:22.458Z,2.70
2017-12-17T06:49:50.226Z,2.90
2017-12-17T06:52:18.013Z,3.00
2017-12-17T06:54:45.774Z,3.10
2017-12-17T06:57:13.449Z,3.10
2017-12-17T06:59:41.229Z,2.90
2017-12-17T07:02:08.951Z,2.90
2017-12-17T07:04:36.717Z,2.80
2017-12-17T07:07:04.443Z,2.70
2017-12-17T07:09:32.198Z,2.70
2017-12-17T07:12:00.193Z,2.60
2017-12-17T07:14:27.958Z,2.60
2017-12-17T07:16:55.680Z,2.60
2017-12-17T07:19:24.170Z,2.50
2017-12-17T07:21:51.939Z,2.50
2017-12-17T07:24:19.667Z,2.50
2017-12-17T07:26:48.191Z,2.50
2017-12-17T07:29:15.919Z,2.40
2017-12-17T07:31:44.458Z,2.40
2017-12-17T07:34:12.176Z,2.40
2017-12-17T07:36:39.903Z,2.30
2017-12-17T07:39:07.630Z,2.30
2017-12-17T07:41:35.399Z,2.30
2017-12-17T07:44:03.123Z,2.30
2017-12-17T07:46:30.874Z,2.40
2017-12-17T07:48:58.586Z,2.40
2017-12-17T07:51:26.336Z,2.40
2017-12-17T07:53:54.038Z,2.30
2017-12-17T07:56:22.543Z,2.30
2017-12-17T07:58:50.259Z,2.30
2017-12-17T08:01:18.031Z,2.30
2017-12-17T08:03:46.494Z,2.30
2017-12-17T08:06:14.247Z,2.30
2017-12-17T08:08:42.019Z,2.20
2017-12-17T08:11:09.747Z,2.20
2017-12-17T08:13:37.511Z,2.40
2017-12-17T08:16:05.227Z,2.50
2017-12-17T08:18:33.757Z,2.80
2017-12-17T08:21:01.961Z,2.80
2017-12-17T08:23:29.701Z,2.80
2017-12-17T08:25:57.424Z,2.90
2017-12-17T08:28:25.191Z,2.70
2017-12-17T08:30:53.011Z,2.60
2017-12-17T08:33:20.828Z,2.70
2017-12-17T08:35:48.528Z,2.80
2017-12-17T08:38:16.331Z,2.90
2017-12-17T08:40:44.350Z,3.00
2017-12-17T08:43:12.124Z,3.10
2017-12-17T08:45:39.827Z,3.20
2017-12-17T08:48:07.591Z,3.30
2017-12-17T08:50:35.306Z,3.20
2017-12-17T08:53:03.051Z,3.20
2017-12-17T08:55:35.953Z,3.10
2017-12-17T08:58:04.592Z,3.10
2017-12-17T09:00:32.331Z,3.10
2017-12-17T09:03:00.103Z,2.90
2017-12-17T09:05:27.839Z,3.00
2017-12-17T09:07:55.608Z,2.90
2017-12-17T09:10:23.316Z,2.80
2017-12-17T09:12:51.088Z,2.80
2017-12-17T09:15:18.899Z,2.90
2017-12-17T09:17:46.698Z,2.80
2017-12-17T09:20:17.746Z,2.90
2017-12-17T09:22:45.696Z,2.90
2017-12-17T09:25:13.686Z,2.90
2017-12-17T09:27:41.415Z,2.90
2017-12-17T09:30:09.193Z,3.00
2017-12-17T09:32:37.313Z,3.00
2017-12-17T09:35:05.104Z,3.00
2017-12-17T09:37:33.223Z,3.10
2017-12-17T09:40:01.788Z,3.30
2017-12-17T09:42:29.515Z,3.20
2017-12-17T09:44:57.472Z,3.40
2017-12-17T09:47:25.330Z,3.50
2017-12-17T09:49:53.156Z,3.40
2017-12-17T09:52:20.910Z,3.40
2017-12-17T09:54:48.835Z,3.30
2017-12-17T09:57:16.622Z,3.30
2017-12-17T09:59:44.482Z,3.40
2017-12-17T10:02:13.272Z,3.40
2017-12-17T10:04:41.120Z,3.30
2017-12-17T10:07:08.998Z,3.30
2017-12-17T10:09:37.826Z,3.30
2017-12-17T10:12:05.675Z,3.20
2017-12-17T10:14:34.197Z,3.40
2017-12-17T10:17:01.951Z,3.30
2017-12-17T10:19:29.758Z,3.40
2017-12-17T10:21:57.684Z,3.50
2017-12-17T10:24:25.542Z,3.40
2017-12-17T10:26:53.334Z,3.50
2017-12-17T10:29:21.055Z,3.50
2017-12-17T10:31:48.816Z,3.50
2017-12-17T10:34:16.516Z,3.60
2017-12-17T10:36:44.275Z,3.60
2017-12-17T10:39:11.999Z,3.60
2017-12-17T10:41:39.800Z,3.60
2017-12-17T10:44:07.778Z,3.70
2017-12-17T10:46:36.112Z,3.80
2017-12-17T10:49:03.844Z,3.70
2017-12-17T10:51:32.387Z,3.60
2017-12-17T10:54:00.122Z,3.60
2017-12-17T10:56:27.908Z,3.70
2017-12-17T10:58:55.648Z,3.80
2017-12-17T11:01:23.414Z,3.90
2017-12-17T11:03:52.058Z,3.70
2017-12-17T11:06:20.627Z,3.80
2017-12-17T11:08:49.135Z,3.80
2017-12-17T11:11:16.915Z,3.80
2017-12-17T11:13:44.663Z,3.70
2017-12-17T11:16:12.442Z,3.80
2017-12-17T11:18:40.191Z,3.90
2017-12-17T11:21:07.900Z,3.80
2017-12-17T11:23:35.659Z,3.80
2017-12-17T11:26:03.643Z,3.80
2017-12-17T11:28:32.142Z,4.00
2017-12-17T11:30:59.865Z,4.00
2017-12-17T11:33:27.619Z,4.00
2017-12-17T11:35:55.438Z,4.00
2017-12-17T11:38:23.188Z,4.00
2017-12-17T11:40:50.899Z,4.00
2017-12-17T11:43:19.003Z,3.80
2017-12-17T11:45:46.722Z,3.90
2017-12-17T11:48:14.466Z,3.90
2017-12-17T11:50:42.183Z,3.90
2017-12-17T11:53:10.715Z,3.80
2017-12-17T11:55:38.427Z,3.70
2017-12-17T11:58:06.954Z,3.70
2017-12-17T12:00:34.654Z,3.70
2017-12-17T12:03:03.183Z,3.70
2017-12-17T12:05:30.906Z,3.60
2017-12-17T12:07:58.825Z,3.70
2017-12-17T12:10:26.643Z,3.60
2017-12-17T12:12:54.484Z,3.70
2017-12-17T12:15:22.215Z,3.60
2017-12-17T12:17:49.957Z,3.50
2017-12-17T12:20:17.735Z,3.60
2017-12-17T12:22:45.476Z,3.60
2017-12-17T12:25:13.259Z,3.50
2017-12-17T12:27:41.009Z,3.50
2017-12-17T12:30:08.787Z,3.40
2017-12-17T12:32:36.659Z,3.50
2017-12-17T12:35:04.430Z,3.60
2017-12-17T12:37:32.207Z,3.60
2017-12-17T12:40:00.775Z,3.40
2017-12-17T12:42:28.508Z,3.40
2017-12-17T12:44:56.261Z,3.50
2017-12-17T12:47:24.011Z,3.50
2017-12-17T12:49:51.897Z,3.60
2017-12-17T12:52:19.617Z,3.60
2017-12-17T12:54:47.394Z,3.60
2017-12-17T12:57:15.383Z,3.70
2017-12-17T12:59:43.178Z,3.70
2017-12-17T13:02:10.913Z,3.80
2017-12-17T13:04:38.678Z,3.70
2017-12-17T13:07:07.136Z,4.00
2017-12-17T13:09:34.911Z,4.10
2017-12-17T13:12:02.620Z,4.20
2017-12-17T13:14:31.932Z,4.30
2017-12-17T13:16:59.992Z,4.30
2017-12-17T13:19:27.727Z,4.30
2017-12-17T13:21:55.534Z,4.40
2017-12-17T13:24:23.271Z,4.40
2017-12-17T13:26:51.804Z,4.40
2017-12-17T13:29:19.528Z,4.40
2017-12-17T13:31:47.368Z,4.40
2017-12-17T13:34:15.911Z,4.40
2017-12-17T13:36:43.695Z,4.40
2017-12-17T13:39:12.457Z,4.50
2017-12-17T13:41:40.218Z,4.40
2017-12-17T13:44:07.958Z,4.40
2017-12-17T13:46:35.779Z,4.30
2017-12-17T13:49:04.273Z,4.30
2017-12-17T13:51:32.059Z,4.30
2017-12-17T13:53:59.897Z,4.20
2017-12-17T13:56:27.646Z,4.10
2017-12-17T13:58:56.123Z,4.00
2017-12-17T14:01:24.666Z,3.90
2017-12-17T14:03:52.536Z,3.90
2017-12-17T14:06:20.957Z,3.90
2017-12-17T14:08:48.929Z,3.90
2017-12-17T14:11:18.633Z,3.80
2017-12-17T14:13:46.430Z,3.90
2017-12-17T14:16:14.199Z,4.00
2017-12-17T14:18:41.883Z,4.00
2017-12-17T14:21:09.619Z,3.80
2017-12-17T14:23:37.379Z,3.80
2017-12-17T14:26:05.110Z,3.80
2017-12-17T14:28:32.911Z,3.70
2017-12-17T14:31:01.195Z,3.80
2017-12-17T14:33:28.972Z,3.80
2017-12-17T14:35:57.462Z,3.80
2017-12-17T14:38:30.035Z,3.80
2017-12-17T14:40:57.892Z,3.80
2017-12-17T14:43:26.440Z,3.90
2017-12-17T14:45:54.370Z,3.90
2017-12-17T14:48:22.147Z,4.00
2017-12-17T14:50:51.204Z,4.00
2017-12-17T14:53:19.763Z,4.00
2017-12-17T14:55:47.492Z,4.00
2017-12-17T14:58:15.260Z,4.00
2017-12-17T15:00:42.985Z,4.10
2017-12-17T15:03:10.740Z,4.10
2017-12-17T15:05:38.461Z,4.10
2017-12-17T15:08:06.372Z,4.10
2017-12-17T15:10:34.131Z,4.10
2017-12-17T15:13:01.947Z,4.00
2017-12-17T15:15:29.663Z,4.20
2017-12-17T15:17:57.589Z,4.10
2017-12-17T15:20:26.181Z,4.00
2017-12-17T15:22:55.192Z,3.90
2017-12-17T15:25:22.959Z,3.90
2017-12-17T15:27:51.171Z,4.00
2017-12-17T15:30:18.923Z,3.90
2017-12-17T15:32:46.655Z,3.80
2017-12-17T15:35:14.560Z,3.80
2017-12-17T15:37:42.307Z,3.80
2017-12-17T15:40:10.084Z,3.80
2017-12-17T15:42:37.819Z,3.70
2017-12-17T15:45:05.596Z,3.80
2017-12-17T15:47:33.456Z,3.80
2017-12-17T15:50:01.236Z,3.70
2017-12-17T15:52:29.050Z,3.70
2017-12-17T15:54:56.815Z,3.40
2017-12-17T15:57:25.170Z,3.40
2017-12-17T15:59:57.923Z,3.30
2017-12-17T16:02:27.874Z,3.30
2017-12-17T16:04:56.387Z,3.20
2017-12-17T16:07:25.017Z,3.30
2017-12-17T16:09:55.189Z,3.30
2017-12-17T16:12:24.576Z,3.30
2017-12-17T16:14:53.276Z,3.20
2017-12-17T16:17:21.039Z,3.20
2017-12-17T16:19:48.792Z,3.20
2017-12-17T16:22:16.526Z,3.20
2017-12-17T16:24:44.325Z,3.30
2017-12-17T16:27:12.050Z,3.30
2017-12-17T16:29:39.909Z,3.30
2017-12-17T16:32:08.990Z,3.40
2017-12-17T16:34:36.702Z,3.30
2017-12-17T16:37:04.497Z,3.40
2017-12-17T16:39:32.267Z,3.40
2017-12-17T16:42:00.769Z,3.40
2017-12-17T16:44:28.434Z,3.50
2017-12-17T16:46:56.201Z,3.50
2017-12-17T16:49:24.781Z,3.30
2017-12-17T16:51:52.520Z,3.40
2017-12-17T16:54:20.196Z,3.20
2017-12-17T16:56:47.903Z,3.20
2017-12-17T16:59:15.575Z,3.20
2017-12-17T17:01:44.094Z,3.40
2017-12-17T17:04:11.801Z,3.40
2017-12-17T17:06:39.527Z,3.60
2017-12-17T17:09:07.213Z,3.60
2017-12-17T17:11:34.943Z,3.60
2017-12-17T17:14:02.646Z,3.70
2017-12-17T17:16:30.559Z,3.70
2017-12-17T17:18:58.256Z,3.50
2017-12-17T17:21:25.986Z,3.50
2017-12-17T17:23:53.705Z,3.60
2017-12-17T17:26:22.199Z,3.70
2017-12-17T17:28:49.888Z,3.70
2017-12-17T17:31:17.602Z,3.70
2017-12-17T17:33:45.566Z,3.70
2017-12-17T17:36:14.251Z,3.70
2017-12-17T17:38:42.788Z,3.60
2017-12-17T17:41:10.515Z,3.60
2017-12-17T17:43:38.281Z,3.50
2017-12-17T17:46:06.856Z,3.60
2017-12-17T17:48:34.736Z,3.60
2017-12-17T17:51:02.654Z,3.60
2017-12-17T17:53:31.439Z,3.70
2017-12-17T17:56:00.647Z,3.60
2017-12-17T17:58:29.280Z,3.70
2017-12-17T18:00:56.990Z,3.60
2017-12-17T18:03:25.761Z,3.60
2017-12-17T18:05:54.207Z,3.50
2017-12-17T18:08:22.140Z,3.50
2017-12-17T18:10:49.893Z,3.50
2017-12-17T18:13:20.508Z,3.40
2017-12-17T18:15:48.451Z,3.40
2017-12-17T18:18:16.208Z,3.40
2017-12-17T18:20:43.878Z,3.50
2017-12-17T18:23:11.601Z,3.40
2017-12-17T18:25:39.691Z,3.40
2017-12-17T18:28:07.390Z,3.40
2017-12-17T18:30:35.854Z,3.40
2017-12-17T18:33:04.478Z,3.40
2017-12-17T18:35:32.349Z,3.40
2017-12-17T18:38:00.095Z,3.30
2017-12-17T18:40:27.751Z,3.30
2017-12-17T18:42:55.417Z,3.40
2017-12-17T18:45:23.301Z,3.30
2017-12-17T18:47:50.972Z,3.20
2017-12-17T18:50:18.771Z,3.20
2017-12-17T18:52:47.389Z,3.20
2017-12-17T18:55:15.288Z,3.20
2017-12-17T18:57:43.071Z,3.20
2017-12-17T19:00:11.691Z,3.20
2017-12-17T19:02:39.923Z,3.20
2017-12-17T19:05:09.014Z,3.20
2017-12-17T19:07:36.780Z,3.20
2017-12-17T19:10:05.255Z,3.20
2017-12-17T19:12:33.986Z,3.10
2017-12-17T19:15:01.779Z,3.10
2017-12-17T19:17:29.442Z,3.20
2017-12-17T19:19:57.217Z,3.20
2017-12-17T19:22:24.923Z,3.10
2017-12-17T19:24:53.153Z,3.10
2017-12-17T19:27:20.844Z,3.10
2017-12-17T19:29:49.537Z,3.10
2017-12-17T19:32:18.666Z,3.10
2017-12-17T19:34:46.788Z,3.20
2017-12-17T19:37:14.470Z,3.20
2017-12-17T19:39:42.183Z,3.20
2017-12-17T19:42:10.626Z,3.00
2017-12-17T19:44:38.388Z,3.00
2017-12-17T19:47:08.483Z,3.00
2017-12-17T19:49:38.743Z,3.00
2017-12-17T19:52:09.183Z,3.10
2017-12-17T19:54:39.713Z,3.10
2017-12-17T19:57:09.696Z,3.10
2017-12-17T19:59:39.551Z,3.00
2017-12-17T20:02:09.687Z,3.00
2017-12-17T20:04:39.926Z,3.00
2017-12-17T20:07:08.565Z,3.00
2017-12-17T20:09:36.252Z,3.00
2017-12-17T20:12:03.966Z,2.90
2017-12-17T20:14:31.636Z,2.90
2017-12-17T20:17:00.116Z,2.90
2017-12-17T20:19:28.512Z,2.90
2017-12-17T20:21:56.677Z,2.90
2017-12-17T20:24:29.476Z,2.90
2017-12-17T20:26:57.373Z,2.80
2017-12-17T20:29:28.738Z,2.80
2017-12-17T20:31:56.725Z,2.80
2017-12-17T20:34:25.187Z,2.70
2017-12-17T20:36:53.236Z,2.70
2017-12-17T20:39:20.911Z,2.70
2017-12-17T20:41:49.355Z,2.60
2017-12-17T20:44:17.011Z,2.60
2017-12-17T20:46:44.728Z,2.60
2017-12-17T20:49:13.328Z,2.50
2017-12-17T20:51:41.149Z,2.50
2017-12-17T20:54:08.836Z,2.50
2017-12-17T20:56:36.875Z,2.60
2017-12-17T20:59:04.818Z,2.50
2017-12-17T21:01:32.622Z,2.40
2017-12-17T21:04:02.632Z,2.40
2017-12-17T21:06:31.311Z,2.40
2017-12-17T21:08:59.107Z,2.40
2017-12-17T21:11:26.775Z,2.40
2017-12-17T21:13:54.475Z,2.40
2017-12-17T21:16:22.161Z,2.30
2017-12-17T21:18:50.695Z,2.20
2017-12-17T21:21:18.381Z,2.20
2017-12-17T21:23:46.100Z,2.20
2017-12-17T21:26:13.775Z,2.30
2017-12-17T21:28:41.492Z,2.20
2017-12-17T21:31:09.175Z,2.20
2017-12-17T21:33:36.980Z,2.10
2017-12-17T21:36:04.664Z,2.10
2017-12-17T21:38:33.136Z,2.10
2017-12-17T21:41:01.782Z,2.10
2017-12-17T21:43:29.571Z,2.10
2017-12-17T21:45:57.296Z,2.10
2017-12-17T21:48:25.678Z,2.10
2017-12-17T21:50:53.657Z,2.00
2017-12-17T21:53:21.419Z,2.10
2017-12-17T21:55:49.099Z,2.00
2017-12-17T21:58:17.591Z,2.00
2017-12-17T22:00:46.048Z,2.00
2017-12-17T22:03:13.799Z,2.00
2017-12-17T22:05:41.457Z,2.10
2017-12-17T22:08:09.135Z,2.00
2017-12-17T22:10:37.614Z,2.00
2017-12-17T22:13:06.059Z,2.00
2017-12-17T22:15:33.763Z,2.00
2017-12-17T22:18:02.195Z,2.00
2017-12-17T22:20:30.032Z,1.90
2017-12-17T22:22:57.711Z,2.00
2017-12-17T22:25:25.423Z,2.00
2017-12-17T22:27:53.860Z,2.00
2017-12-17T22:30:21.581Z,2.00
2017-12-17T22:32:49.266Z,2.00
2017-12-17T22:35:16.998Z,2.00
2017-12-17T22:37:44.670Z,2.00
2017-12-17T22:40:12.391Z,2.10
2017-12-17T22:42:40.849Z,2.10
2017-12-17T22:45:08.575Z,2.10
2017-12-17T22:47:36.286Z,2.10
2017-12-17T22:50:04.806Z,2.00
2017-12-17T22:52:32.492Z,2.00
2017-12-17T22:55:00.251Z,2.10
2017-12-17T22:57:27.943Z,2.20
2017-12-17T22:59:55.676Z,2.20
2017-12-17T23:02:23.363Z,2.10
2017-12-17T23:04:51.112Z,2.10
2017-12-17T23:07:18.795Z,2.10
2017-12-17T23:09:46.531Z,2.10
2017-12-17T23:12:14.662Z,2.10
2017-12-17T23:14:43.194Z,2.00
2017-12-17T23:17:11.691Z,1.90
2017-12-17T23:19:41.103Z,1.90
2017-12-17T23:22:08.842Z,1.90
2017-12-17T23:24:37.298Z,2.10
2017-12-17T23:27:05.056Z,2.10
2017-12-17T23:29:32.865Z,2.10
2017-12-17T23:32:00.628Z,2.10
2017-12-17T23:34:28.341Z,2.10
2017-12-17T23:36:56.072Z,2.00
2017-12-17T23:39:23.764Z,2.10
2017-12-17T23:41:51.498Z,2.00
2017-12-17T23:44:19.179Z,1.90
2017-12-17T23:46:46.923Z,2.00
2017-12-17T23:49:14.630Z,2.10
2017-12-17T23:51:43.171Z,2.00
2017-12-17T23:54:10.859Z,2.00
2017-12-17T23:56:38.583Z,2.10
2017-12-17T23:59:06.258Z,2.20
